createdAt,value
2022-11-03T00:08:24.261Z,21.45
2022-11-03T00:11:01.883Z,24.85
2022-11-03T00:16:50.313Z,23.33
2022-11-03T00:19:16.307Z,18.70
2022-11-03T00:22:28.791Z,21.90
2022-11-03T00:25:33.373Z,20.70
2022-11-03T00:31:59.104Z,28.23
2022-11-03T01:01:32.861Z,22.65
2022-11-03T01:11:41.765Z,22.27
2022-11-03T01:14:23.785Z,23.77
2022-11-03T01:22:40.556Z,17.20
2022-11-03T01:25:22.581Z,17.23
2022-11-03T01:49:49.104Z,23.95
2022-11-03T01:52:36.680Z,24.23
2022-11-03T01:55:09.761Z,23.00
2022-11-03T01:57:42.378Z,28.48
2022-11-03T02:00:14.725Z,26.15
2022-11-03T02:02:42.590Z,21.10
2022-11-03T02:07:52.309Z,18.45
2022-11-03T02:11:07.971Z,23.77
2022-11-03T02:15:57.305Z,20.40
2022-11-03T02:18:28.176Z,21.10
2022-11-03T02:21:15.488Z,14.95
2022-11-03T02:23:51.863Z,15.55
2022-11-03T02:26:30.978Z,17.85
2022-11-03T02:28:58.336Z,17.95
2022-11-03T02:31:49.663Z,16.33
2022-11-03T02:34:20.688Z,16.00
2022-11-03T02:36:51.023Z,23.10
2022-11-03T02:39:35.483Z,19.67
2022-11-03T02:42:04.164Z,23.23
2022-11-03T02:44:35.515Z,19.77
2022-11-03T02:47:04.049Z,15.85
2022-11-03T02:49:33.024Z,13.23
2022-11-03T02:52:01.469Z,16.05
2022-11-03T02:54:34.941Z,24.27
2022-11-03T02:57:12.379Z,22.08
2022-11-03T02:59:50.447Z,19.73
2022-11-03T03:02:20.506Z,16.30
2022-11-03T03:04:59.820Z,20.52
2022-11-03T03:07:42.807Z,14.30
2022-11-03T03:10:12.873Z,23.67
2022-11-03T03:12:57.950Z,17.33
2022-11-03T03:15:46.208Z,15.98
2022-11-03T03:18:31.587Z,18.92
2022-11-03T03:21:34.782Z,17.40
2022-11-03T03:26:31.154Z,20.13
2022-11-03T03:28:59.974Z,18.23
2022-11-03T03:31:34.293Z,21.02
2022-11-03T03:34:31.516Z,24.77
2022-11-03T03:37:04.257Z,17.30
2022-11-03T03:39:33.246Z,18.17
2022-11-03T03:42:02.792Z,19.40
2022-11-03T03:44:40.674Z,18.55
2022-11-03T03:47:12.720Z,17.50
2022-11-03T03:49:39.873Z,18.73
2022-11-03T03:52:16.358Z,20.77
2022-11-03T03:54:43.640Z,16.73
2022-11-03T03:57:29.921Z,14.35
2022-11-03T04:00:18.993Z,17.67
2022-11-03T04:02:49.124Z,19.15
2022-11-03T04:05:16.538Z,26.98
2022-11-03T04:07:50.136Z,26.60
2022-11-03T04:10:19.617Z,16.73
2022-11-03T04:13:08.318Z,21.27
2022-11-03T04:22:19.166Z,17.35
2022-11-03T04:24:47.917Z,21.15
2022-11-03T04:27:35.752Z,18.40
2022-11-03T04:30:03.348Z,22.30
2022-11-03T04:32:30.633Z,20.25
2022-11-03T04:34:59.138Z,21.50
2022-11-03T04:41:20.844Z,21.00
2022-11-03T04:47:29.243Z,25.08
2022-11-03T04:50:47.774Z,26.40
2022-11-03T04:53:33.390Z,23.27
2022-11-03T04:56:23.344Z,23.02
2022-11-03T05:02:07.235Z,20.75
2022-11-03T05:07:45.618Z,18.88
2022-11-03T05:22:42.561Z,21.95
2022-11-03T05:25:50.251Z,30.48
2022-11-03T05:26:20.162Z,29.83
2022-11-03T05:28:25.953Z,27.40
2022-11-03T05:30:53.736Z,32.58
2022-11-03T05:37:06.849Z,28.02
2022-11-03T05:39:45.522Z,31.33
2022-11-03T05:42:21.272Z,22.80
2022-11-03T05:44:48.512Z,30.92
2022-11-03T05:47:20.409Z,19.48
2022-11-03T05:49:49.801Z,25.08
2022-11-03T05:52:20.341Z,25.85
2022-11-03T05:54:47.962Z,25.33
2022-11-03T05:57:15.825Z,32.58
2022-11-03T05:59:50.817Z,23.23
2022-11-03T06:02:36.688Z,23.60
2022-11-03T06:05:16.224Z,27.35
2022-11-03T06:07:52.070Z,17.65
2022-11-03T06:10:19.837Z,23.88
2022-11-03T06:16:20.700Z,21.05
2022-11-03T06:18:50.530Z,26.17
2022-11-03T06:21:29.781Z,25.60
2022-11-03T06:26:53.031Z,23.38
2022-11-03T06:29:21.233Z,26.15
2022-11-03T06:31:53.088Z,26.95
2022-11-03T06:34:25.452Z,21.08
2022-11-03T06:36:52.539Z,29.55
2022-11-03T06:39:23.804Z,25.33
2022-11-03T06:41:50.999Z,22.17
2022-11-03T06:44:26.201Z,23.27
2022-11-03T06:46:57.755Z,28.67
2022-11-03T06:49:29.321Z,29.65
2022-11-03T06:51:57.380Z,24.13
2022-11-03T06:54:24.459Z,24.50
2022-11-03T06:56:51.594Z,21.77
2022-11-03T06:59:19.111Z,22.88
2022-11-03T07:01:47.270Z,30.20
2022-11-03T07:04:21.019Z,36.20
2022-11-03T07:06:55.628Z,29.85
2022-11-03T07:09:55.221Z,19.65
2022-11-03T07:12:22.586Z,22.88
2022-11-03T07:14:53.707Z,20.42
2022-11-03T07:17:22.681Z,23.65
2022-11-03T07:19:49.851Z,26.77
2022-11-03T07:22:22.354Z,27.00
2022-11-03T07:27:50.922Z,22.30
2022-11-03T07:30:22.081Z,20.58
2022-11-03T07:33:14.021Z,20.40
2022-11-03T07:36:16.252Z,17.50
2022-11-03T07:39:03.109Z,22.60
2022-11-03T07:41:34.349Z,28.77
2022-11-03T07:44:02.570Z,15.13
2022-11-03T07:46:29.831Z,25.38
2022-11-03T07:49:12.988Z,24.67
2022-11-03T07:52:17.994Z,25.58
2022-11-03T07:55:21.152Z,24.02
2022-11-03T08:00:29.636Z,18.45
2022-11-03T08:03:34.193Z,17.67
2022-11-03T08:06:21.889Z,15.13
2022-11-03T08:09:05.388Z,26.50
2022-11-03T08:11:35.555Z,24.73
2022-11-03T08:16:40.553Z,19.77
2022-11-03T08:27:00.947Z,11.18
2022-11-03T08:32:52.379Z,9.70
2022-11-03T08:35:19.610Z,11.77
2022-11-03T08:37:53.051Z,12.02
2022-11-03T08:43:11.566Z,13.10
2022-11-03T08:46:17.320Z,14.52
2022-11-03T08:51:50.561Z,10.43
2022-11-03T08:54:18.010Z,11.07
2022-11-03T08:56:46.876Z,10.30
2022-11-03T09:02:03.573Z,12.05
2022-11-03T09:04:35.951Z,14.60
2022-11-03T09:07:04.965Z,15.13
2022-11-03T09:12:21.694Z,19.70
2022-11-03T09:14:48.811Z,15.60
2022-11-03T09:17:15.886Z,12.68
2022-11-03T09:19:45.283Z,11.73
2022-11-03T09:22:12.505Z,13.63
2022-11-03T09:24:39.602Z,13.45
2022-11-03T09:27:06.971Z,11.93
2022-11-03T09:29:58.604Z,12.70
2022-11-03T09:32:23.599Z,15.13
2022-11-03T09:34:51.172Z,14.98
2022-11-03T09:37:18.998Z,12.45
2022-11-03T09:39:46.332Z,13.40
2022-11-03T09:42:44.142Z,17.63
2022-11-03T09:45:19.144Z,14.60
2022-11-03T09:47:47.446Z,15.00
2022-11-03T09:50:25.723Z,10.55
2022-11-03T09:53:29.331Z,14.30
2022-11-03T09:55:56.683Z,15.90
